Weather History for Danville, KY

Change the Weather History Date:

Monday, April 1, 2013

  Actual Average (KLEX) Record (KLEX)
Temperature  
Mean Temperature 44 °F 51 °F  
Max Temperature 51 °F 61 °F 82 °F (1963)
Min Temperature 35 °F 40 °F 20 °F (1923)
Degree Days  
Heating Degree Days 21 15  
Month to date heating degree days 15  
Since 1 July heating degree days 4191  
Cooling Degree Days 0 0  
Month to date cooling degree days 0  
Year to date cooling degree days 2  
Moisture  
Dew Point 34 °F    
Average Humidity 68    
Maximum Humidity 100    
Minimum Humidity 43    
Precipitation  
Precipitation 0.00 in 0.12 in 1.80 in (1970)
Month to date precipitation 0.12  
Year to date precipitation 10.59  
Snow  
Snow 0.00 in 0.00 in 2.90 in (1961)
Month to date snowfall 0.0  
Since 1 July snowfall 12.7  
Snow Depth -    
Sea Level Pressure  
Sea Level Pressure 30.01 in    
Wind  
Wind Speed 7 mph (NW)    
Max Wind Speed 14 mph    
Max Gust Speed 22 mph    
Visibility 10 miles    
Events      
T = Trace of Precipitation, MM = Missing Value Source: NWS Daily Summary

Daily Weather History Graph

Daily Weather History Graph

Search for Another Location

Airport:

Trip Planner

Search our weather history database for the weather conditions in past years. The results will help you decide how hot, cold, wet, or windy it might be!

Date:

Astronomy

Apr. 01, 2013 Rise Set
Actual Time 7:24 AM EDT 8:02 PM EDT
Civil Twilight 6:57 AM EDT 8:28 PM EDT
Nautical Twilight 6:26 AM EDT 8:59 PM EDT
Astronomical Twilight 5:54 AM EDT 9:31 PM EDT
Moon 1:04 AM EDT (4/1) 11:15 AM EDT (4/1)
Length of Visible Light 13h 30m
Length of Day
12h 37m
Waning Gibbous, 67% of the Moon is Illuminated
Apr 1
Waning Gibbous
Apr 3
Last Quarter
Apr 10
New
Apr 18
First Quarter
Apr 25
Full

Hourly Weather History & Observations

Time (EDT) Temp. Windchill Dew Point Humidity Pressure Visibility Wind Dir Wind Speed Gust Speed Precip Events Conditions
12:15 AM 44.6 °F 41.4 °F 42.8 °F 93% 29.88 in 10.0 mi SW 5.8 mph - N/A   Clear
12:35 AM 42.8 °F 40.1 °F 42.8 °F 100% 29.88 in 10.0 mi SW 4.6 mph - N/A   Clear
12:55 AM 42.8 °F 39.3 °F 42.8 °F 100% 29.89 in 10.0 mi SSW 5.8 mph - N/A   Clear
1:15 AM 42.8 °F 38.6 °F 42.8 °F 100% 29.88 in 10.0 mi SSW 6.9 mph - N/A   Clear
1:35 AM 42.8 °F 38.0 °F 42.8 °F 100% 29.89 in 10.0 mi SW 8.1 mph - N/A   Scattered Clouds
1:55 AM 42.8 °F 38.6 °F 42.8 °F 100% 29.89 in 10.0 mi SSW 6.9 mph - N/A   Scattered Clouds
2:15 AM 42.8 °F 38.6 °F 42.8 °F 100% 29.89 in 7.0 mi SSW 6.9 mph - N/A   Scattered Clouds
2:35 AM 44.6 °F 40.7 °F 42.8 °F 93% 29.89 in 7.0 mi SSW 6.9 mph - N/A   Mostly Cloudy
2:55 AM 44.6 °F 40.7 °F 44.6 °F 100% 29.89 in 7.0 mi SSW 6.9 mph - N/A   Overcast
3:15 AM 44.6 °F 40.7 °F 44.6 °F 100% 29.89 in 7.0 mi SW 6.9 mph - N/A   Overcast
3:35 AM 46.4 °F 42.9 °F 44.6 °F 93% 29.89 in 10.0 mi WSW 6.9 mph - N/A   Overcast
3:55 AM 46.4 °F 42.9 °F 44.6 °F 93% 29.88 in 10.0 mi SW 6.9 mph - N/A   Overcast
4:15 AM 46.4 °F 41.9 °F 44.6 °F 93% 29.88 in 10.0 mi SW 9.2 mph - N/A   Overcast
4:35 AM 44.6 °F 41.4 °F 42.8 °F 93% 29.88 in 10.0 mi SW 5.8 mph - N/A   Mostly Cloudy
4:55 AM 44.6 °F 41.4 °F 42.8 °F 93% 29.89 in 7.0 mi SW 5.8 mph - N/A   Mostly Cloudy
5:15 AM 44.6 °F 40.7 °F 44.6 °F 100% 29.89 in 10.0 mi WSW 6.9 mph - N/A   Overcast
5:35 AM 46.4 °F 44.3 °F 44.6 °F 93% 29.90 in 10.0 mi WSW 4.6 mph - N/A   Overcast
5:55 AM 46.4 °F 42.4 °F 44.6 °F 93% 29.91 in 10.0 mi West 8.1 mph - N/A   Overcast
6:15 AM 46.4 °F 41.9 °F 44.6 °F 93% 29.91 in 10.0 mi West 9.2 mph - N/A   Overcast
6:35 AM 46.4 °F 41.9 °F 44.6 °F 93% 29.91 in 10.0 mi West 9.2 mph - N/A   Overcast
6:55 AM 46.4 °F 42.9 °F 42.8 °F 87% 29.92 in 10.0 mi WNW 6.9 mph - N/A   Overcast
7:15 AM 46.4 °F 42.9 °F 42.8 °F 87% 29.93 in 10.0 mi NW 6.9 mph - N/A   Overcast
7:35 AM 46.4 °F 42.4 °F 42.8 °F 87% 29.95 in 10.0 mi NW 8.1 mph - N/A   Overcast
7:55 AM 44.6 °F 40.2 °F 41.0 °F 87% 29.96 in 10.0 mi NNW 8.1 mph - N/A   Overcast
8:15 AM 44.6 °F 40.2 °F 41.0 °F 87% 29.98 in 10.0 mi NNW 8.1 mph - N/A   Overcast
8:35 AM 44.6 °F 38.8 °F 37.4 °F 76% 30.00 in 10.0 mi North 11.5 mph 16.1 mph N/A   Overcast
8:55 AM 42.8 °F 36.6 °F 33.8 °F 70% 30.01 in 10.0 mi NNW 11.5 mph - N/A   Overcast
9:15 AM 41.0 °F 33.9 °F 32.0 °F 70% 30.02 in 10.0 mi NNW 12.7 mph - N/A   Overcast
9:35 AM 41.0 °F 34.7 °F 32.0 °F 70% 30.03 in 10.0 mi North 10.4 mph - N/A   Overcast
9:55 AM 42.8 °F 38.0 °F 32.0 °F 66% 30.02 in 10.0 mi NNW 8.1 mph - N/A   Overcast
10:15 AM 42.8 °F 37.5 °F 32.0 °F 66% 30.04 in 10.0 mi NNW 9.2 mph - N/A   Overcast
10:35 AM 42.8 °F 37.5 °F 32.0 °F 66% 30.05 in 10.0 mi North 9.2 mph - N/A   Overcast
10:55 AM 44.6 °F 39.7 °F 32.0 °F 61% 30.05 in 10.0 mi NNW 9.2 mph - N/A   Overcast
11:15 AM 44.6 °F 39.2 °F 30.2 °F 57% 30.05 in 10.0 mi NNW 10.4 mph - N/A   Overcast
11:35 AM 42.8 °F 38.0 °F 30.2 °F 61% 30.06 in 10.0 mi NW 8.1 mph - N/A   Overcast
11:55 AM 44.6 °F 42.2 °F 30.2 °F 57% 30.05 in 10.0 mi NNW 4.6 mph - N/A   Overcast
12:15 PM 44.6 °F 41.4 °F 30.2 °F 57% 30.06 in 10.0 mi NNW 5.8 mph - N/A   Overcast
12:35 PM 44.6 °F 39.7 °F 28.4 °F 53% 30.06 in 10.0 mi NW 9.2 mph - N/A   Overcast
12:55 PM 46.4 °F 41.9 °F 30.2 °F 53% 30.07 in 10.0 mi NNW 9.2 mph - N/A   Mostly Cloudy
1:15 PM 46.4 °F 41.9 °F 30.2 °F 53% 30.06 in 10.0 mi NNW 9.2 mph - N/A   Mostly Cloudy
1:35 PM 50.0 °F - 32.0 °F 50% 30.06 in 10.0 mi NW 12.7 mph 16.1 mph N/A   Scattered Clouds
1:55 PM 48.2 °F - 30.2 °F 50% 30.06 in 10.0 mi WNW 11.5 mph 17.3 mph N/A   Clear
2:15 PM 50.0 °F - 32.0 °F 50% 30.06 in 10.0 mi NW 9.2 mph - N/A   Scattered Clouds
2:35 PM 48.2 °F - 32.0 °F 54% 30.06 in 10.0 mi NW 10.4 mph - N/A   Scattered Clouds
2:55 PM 50.0 °F - 32.0 °F 50% 30.05 in 10.0 mi NNW 11.5 mph 17.3 mph N/A   Mostly Cloudy
3:15 PM 50.0 °F - 32.0 °F 50% 30.04 in 10.0 mi NNW 10.4 mph 16.1 mph N/A   Scattered Clouds
3:35 PM 51.8 °F - 32.0 °F 47% 30.04 in 10.0 mi NW 12.7 mph 21.9 mph N/A   Clear
3:55 PM 51.8 °F - 32.0 °F 47% 30.04 in 10.0 mi WNW 13.8 mph 20.7 mph N/A   Clear
4:15 PM 51.8 °F - 30.2 °F 44% 30.04 in 10.0 mi NW 8.1 mph 19.6 mph N/A   Clear
4:35 PM 51.8 °F - 32.0 °F 47% 30.04 in 10.0 mi NNW 11.5 mph - N/A   Clear
4:55 PM 51.8 °F - 32.0 °F 47% 30.04 in 10.0 mi NNW 10.4 mph 16.1 mph N/A   Scattered Clouds
5:15 PM 51.8 °F - 32.0 °F 47% 30.04 in 10.0 mi North 11.5 mph 16.1 mph N/A   Scattered Clouds
5:35 PM 50.0 °F - 30.2 °F 47% 30.04 in 10.0 mi WNW 5.8 mph - N/A   Scattered Clouds
5:55 PM 48.2 °F - 32.0 °F 54% 30.05 in 10.0 mi NNW 8.1 mph 17.3 mph N/A   Scattered Clouds
6:15 PM 50.0 °F - 32.0 °F 50% 30.05 in 10.0 mi NNW 9.2 mph - N/A   Scattered Clouds
6:35 PM 48.2 °F - 30.2 °F 50% 30.05 in 10.0 mi NNW 10.4 mph - N/A   Mostly Cloudy
6:55 PM 50.0 °F - 28.4 °F 43% 30.05 in 10.0 mi NW 8.1 mph - N/A   Overcast
7:15 PM 48.2 °F - 30.2 °F 50% 30.06 in 10.0 mi NW 8.1 mph - N/A   Mostly Cloudy
7:35 PM 46.4 °F 43.5 °F 28.4 °F 50% 30.06 in 10.0 mi NNW 5.8 mph - N/A   Mostly Cloudy
7:55 PM 44.6 °F 43.1 °F 28.4 °F 53% 30.07 in 10.0 mi NNW 3.5 mph - N/A   Mostly Cloudy
8:15 PM 42.8 °F 40.1 °F 28.4 °F 57% 30.07 in 10.0 mi NNW 4.6 mph - N/A   Scattered Clouds
8:35 PM 44.6 °F 42.2 °F 26.6 °F 49% 30.08 in 10.0 mi WNW 4.6 mph - N/A   Scattered Clouds
8:55 PM 42.8 °F 38.6 °F 26.6 °F 53% 30.09 in 10.0 mi NW 6.9 mph - N/A   Scattered Clouds
9:15 PM 42.8 °F 38.6 °F 23.0 °F 46% 30.10 in 10.0 mi NW 6.9 mph - N/A   Clear
9:35 PM 42.8 °F 39.3 °F 23.0 °F 46% 30.10 in 10.0 mi NW 5.8 mph - N/A   Clear
9:55 PM 41.0 °F 36.4 °F 21.2 °F 45% 30.11 in 10.0 mi NW 6.9 mph - N/A   Clear
10:15 PM 41.0 °F 38.0 °F 21.2 °F 45% 30.12 in 10.0 mi NW 4.6 mph - N/A   Clear
10:35 PM 39.2 °F 35.0 °F 21.2 °F 49% 30.12 in 10.0 mi NW 5.8 mph - N/A   Clear
10:55 PM 39.2 °F 35.0 °F 21.2 °F 49% 30.13 in 10.0 mi NW 5.8 mph - N/A   Clear
11:15 PM 37.4 °F 32.8 °F 21.2 °F 52% 30.13 in 10.0 mi NW 5.8 mph - N/A   Clear
11:35 PM 37.4 °F 33.8 °F 21.2 °F 52% 30.14 in 10.0 mi NW 4.6 mph - N/A   Clear
11:55 PM 35.6 °F 31.7 °F 21.2 °F 56% 30.14 in 10.0 mi NNW 4.6 mph - N/A   Clear